sensor_id;sensor_type;location;lat;lon;timestamp;P1;durP1;ratioP1;P2;durP2;ratioP2
61897;SDS011;47850;50.274;18.908;2023-06-10T00:00:49;13.00;;;11.50;;
61897;SDS011;47850;50.274;18.908;2023-06-10T00:03:55;15.20;;;11.00;;
61897;SDS011;47850;50.274;18.908;2023-06-10T00:06:23;16.80;;;11.10;;
61897;SDS011;47850;50.274;18.908;2023-06-10T00:08:51;14.20;;;11.70;;
61897;SDS011;47850;50.274;18.908;2023-06-10T00:11:20;13.10;;;11.00;;
61897;SDS011;47850;50.274;18.908;2023-06-10T00:13:48;15.80;;;10.60;;
61897;SDS011;47850;50.274;18.908;2023-06-10T00:16:16;17.50;;;11.50;;
61897;SDS011;47850;50.274;18.908;2023-06-10T00:18:45;14.10;;;11.10;;
61897;SDS011;47850;50.274;18.908;2023-06-10T00:21:14;13.60;;;10.90;;
61897;SDS011;47850;50.274;18.908;2023-06-10T00:23:42;16.20;;;10.90;;
61897;SDS011;47850;50.274;18.908;2023-06-10T00:26:11;15.80;;;12.30;;
61897;SDS011;47850;50.274;18.908;2023-06-10T00:28:38;13.20;;;11.80;;
61897;SDS011;47850;50.274;18.908;2023-06-10T00:31:06;15.60;;;12.80;;
61897;SDS011;47850;50.274;18.908;2023-06-10T00:33:34;14.30;;;12.80;;
61897;SDS011;47850;50.274;18.908;2023-06-10T00:36:03;14.30;;;12.30;;
61897;SDS011;47850;50.274;18.908;2023-06-10T00:38:31;17.00;;;12.70;;
61897;SDS011;47850;50.274;18.908;2023-06-10T00:40:59;14.80;;;12.30;;
61897;SDS011;47850;50.274;18.908;2023-06-10T00:43:27;19.40;;;12.60;;
61897;SDS011;47850;50.274;18.908;2023-06-10T00:45:55;15.30;;;13.10;;
61897;SDS011;47850;50.274;18.908;2023-06-10T00:48:26;21.30;;;13.80;;
61897;SDS011;47850;50.274;18.908;2023-06-10T00:50:55;17.80;;;13.40;;
61897;SDS011;47850;50.274;18.908;2023-06-10T00:53:26;17.70;;;14.10;;
61897;SDS011;47850;50.274;18.908;2023-06-10T00:55:55;21.80;;;14.10;;
61897;SDS011;47850;50.274;18.908;2023-06-10T00:58:23;19.80;;;13.30;;
61897;SDS011;47850;50.274;18.908;2023-06-10T01:00:53;19.70;;;13.60;;
61897;SDS011;47850;50.274;18.908;2023-06-10T01:03:20;20.50;;;13.30;;
61897;SDS011;47850;50.274;18.908;2023-06-10T01:05:49;16.90;;;13.70;;
61897;SDS011;47850;50.274;18.908;2023-06-10T01:08:33;16.20;;;13.00;;
61897;SDS011;47850;50.274;18.908;2023-06-10T01:11:12;22.60;;;13.50;;
61897;SDS011;47850;50.274;18.908;2023-06-10T01:13:49;14.80;;;13.20;;
61897;SDS011;47850;50.274;18.908;2023-06-10T01:16:19;20.10;;;13.70;;
61897;SDS011;47850;50.274;18.908;2023-06-10T01:18:47;16.30;;;12.50;;
61897;SDS011;47850;50.274;18.908;2023-06-10T01:21:21;15.60;;;13.80;;
61897;SDS011;47850;50.274;18.908;2023-06-10T01:23:53;17.10;;;13.70;;
61897;SDS011;47850;50.274;18.908;2023-06-10T01:29:00;19.40;;;15.20;;
61897;SDS011;47850;50.274;18.908;2023-06-10T01:34:06;19.50;;;14.60;;
61897;SDS011;47850;50.274;18.908;2023-06-10T01:36:37;17.10;;;13.80;;
61897;SDS011;47850;50.274;18.908;2023-06-10T01:39:05;17.40;;;14.10;;
61897;SDS011;47850;50.274;18.908;2023-06-10T01:41:36;18.40;;;13.80;;
61897;SDS011;47850;50.274;18.908;2023-06-10T01:44:05;16.10;;;14.10;;
61897;SDS011;47850;50.274;18.908;2023-06-10T01:46:33;17.50;;;13.50;;
61897;SDS011;47850;50.274;18.908;2023-06-10T01:49:00;19.90;;;15.10;;
61897;SDS011;47850;50.274;18.908;2023-06-10T01:51:28;19.00;;;15.00;;
61897;SDS011;47850;50.274;18.908;2023-06-10T01:56:26;19.00;;;16.20;;
61897;SDS011;47850;50.274;18.908;2023-06-10T01:58:54;19.80;;;16.50;;
61897;SDS011;47850;50.274;18.908;2023-06-10T02:01:26;22.80;;;17.60;;
61897;SDS011;47850;50.274;18.908;2023-06-10T02:03:54;19.60;;;15.50;;
61897;SDS011;47850;50.274;18.908;2023-06-10T02:06:21;16.90;;;15.00;;
61897;SDS011;47850;50.274;18.908;2023-06-10T02:08:49;19.00;;;15.70;;
61897;SDS011;47850;50.274;18.908;2023-06-10T02:11:17;18.10;;;14.70;;
61897;SDS011;47850;50.274;18.908;2023-06-10T02:13:45;20.00;;;14.40;;
61897;SDS011;47850;50.274;18.908;2023-06-10T02:16:12;18.70;;;14.20;;
61897;SDS011;47850;50.274;18.908;2023-06-10T02:18:41;17.50;;;14.70;;
61897;SDS011;47850;50.274;18.908;2023-06-10T02:21:10;17.10;;;14.20;;
61897;SDS011;47850;50.274;18.908;2023-06-10T02:23:38;18.40;;;13.80;;
61897;SDS011;47850;50.274;18.908;2023-06-10T02:26:06;19.60;;;14.50;;
61897;SDS011;47850;50.274;18.908;2023-06-10T02:28:33;20.90;;;14.30;;
61897;SDS011;47850;50.274;18.908;2023-06-10T02:31:01;17.70;;;14.30;;
61897;SDS011;47850;50.274;18.908;2023-06-10T02:33:29;18.10;;;14.40;;
61897;SDS011;47850;50.274;18.908;2023-06-10T02:35:57;18.70;;;14.40;;
61897;SDS011;47850;50.274;18.908;2023-06-10T02:38:25;19.60;;;14.60;;
61897;SDS011;47850;50.274;18.908;2023-06-10T02:40:52;20.50;;;15.40;;
61897;SDS011;47850;50.274;18.908;2023-06-10T02:43:20;16.20;;;13.70;;
61897;SDS011;47850;50.274;18.908;2023-06-10T02:45:48;19.40;;;14.60;;
61897;SDS011;47850;50.274;18.908;2023-06-10T02:48:16;22.00;;;15.50;;
61897;SDS011;47850;50.274;18.908;2023-06-10T02:50:43;21.80;;;15.90;;
61897;SDS011;47850;50.274;18.908;2023-06-10T02:53:11;22.30;;;16.40;;
61897;SDS011;47850;50.274;18.908;2023-06-10T02:55:40;19.30;;;15.90;;
61897;SDS011;47850;50.274;18.908;2023-06-10T02:58:08;23.90;;;16.70;;
61897;SDS011;47850;50.274;18.908;2023-06-10T03:00:36;21.50;;;15.70;;
61897;SDS011;47850;50.274;18.908;2023-06-10T03:03:04;18.50;;;15.10;;
61897;SDS011;47850;50.274;18.908;2023-06-10T03:05:32;21.90;;;15.50;;
61897;SDS011;47850;50.274;18.908;2023-06-10T03:08:00;21.50;;;15.80;;
61897;SDS011;47850;50.274;18.908;2023-06-10T03:10:28;19.50;;;16.10;;
61897;SDS011;47850;50.274;18.908;2023-06-10T03:12:56;19.20;;;16.30;;
61897;SDS011;47850;50.274;18.908;2023-06-10T03:15:24;20.40;;;16.60;;
61897;SDS011;47850;50.274;18.908;2023-06-10T03:17:52;20.80;;;16.00;;
61897;SDS011;47850;50.274;18.908;2023-06-10T03:20:19;20.30;;;15.60;;
61897;SDS011;47850;50.274;18.908;2023-06-10T03:22:49;20.90;;;16.20;;
61897;SDS011;47850;50.274;18.908;2023-06-10T03:25:17;21.40;;;16.30;;
61897;SDS011;47850;50.274;18.908;2023-06-10T03:27:44;23.30;;;16.60;;
61897;SDS011;47850;50.274;18.908;2023-06-10T03:30:13;20.50;;;16.90;;
61897;SDS011;47850;50.274;18.908;2023-06-10T03:32:41;23.40;;;17.10;;
61897;SDS011;47850;50.274;18.908;2023-06-10T03:35:09;27.40;;;17.60;;
61897;SDS011;47850;50.274;18.908;2023-06-10T03:37:37;28.80;;;19.60;;
61897;SDS011;47850;50.274;18.908;2023-06-10T03:40:05;24.50;;;17.40;;
61897;SDS011;47850;50.274;18.908;2023-06-10T03:42:35;20.90;;;17.10;;
61897;SDS011;47850;50.274;18.908;2023-06-10T03:45:03;22.70;;;17.80;;
61897;SDS011;47850;50.274;18.908;2023-06-10T03:47:34;29.50;;;19.10;;
61897;SDS011;47850;50.274;18.908;2023-06-10T03:50:08;24.80;;;17.50;;
61897;SDS011;47850;50.274;18.908;2023-06-10T03:52:37;25.00;;;17.30;;
61897;SDS011;47850;50.274;18.908;2023-06-10T03:55:05;26.50;;;19.00;;
61897;SDS011;47850;50.274;18.908;2023-06-10T03:57:34;33.70;;;21.00;;
61897;SDS011;47850;50.274;18.908;2023-06-10T04:00:01;32.70;;;20.70;;
61897;SDS011;47850;50.274;18.908;2023-06-10T04:02:35;29.70;;;18.80;;
61897;SDS011;47850;50.274;18.908;2023-06-10T04:05:04;24.80;;;18.00;;
61897;SDS011;47850;50.274;18.908;2023-06-10T04:07:32;24.70;;;16.20;;
61897;SDS011;47850;50.274;18.908;2023-06-10T04:09:59;19.80;;;14.50;;
61897;SDS011;47850;50.274;18.908;2023-06-10T04:12:27;17.70;;;14.00;;
61897;SDS011;47850;50.274;18.908;2023-06-10T04:14:55;20.50;;;13.90;;
61897;SDS011;47850;50.274;18.908;2023-06-10T04:17:23;19.00;;;13.70;;
61897;SDS011;47850;50.274;18.908;2023-06-10T04:19:51;18.90;;;12.30;;
61897;SDS011;47850;50.274;18.908;2023-06-10T04:22:19;15.10;;;11.10;;
61897;SDS011;47850;50.274;18.908;2023-06-10T04:24:47;11.70;;;10.50;;
61897;SDS011;47850;50.274;18.908;2023-06-10T04:27:14;12.80;;;10.30;;
61897;SDS011;47850;50.274;18.908;2023-06-10T04:29:43;13.60;;;9.70;;
61897;SDS011;47850;50.274;18.908;2023-06-10T04:32:11;15.80;;;9.50;;
61897;SDS011;47850;50.274;18.908;2023-06-10T04:34:38;14.20;;;10.00;;
61897;SDS011;47850;50.274;18.908;2023-06-10T04:37:06;15.10;;;10.40;;
61897;SDS011;47850;50.274;18.908;2023-06-10T04:39:34;16.70;;;9.90;;
61897;SDS011;47850;50.274;18.908;2023-06-10T04:42:02;15.60;;;10.00;;
61897;SDS011;47850;50.274;18.908;2023-06-10T04:44:30;15.10;;;10.10;;
61897;SDS011;47850;50.274;18.908;2023-06-10T04:46:58;14.40;;;9.50;;
61897;SDS011;47850;50.274;18.908;2023-06-10T04:49:26;16.10;;;9.40;;
61897;SDS011;47850;50.274;18.908;2023-06-10T04:51:54;13.80;;;10.50;;
61897;SDS011;47850;50.274;18.908;2023-06-10T04:54:21;14.20;;;10.20;;
61897;SDS011;47850;50.274;18.908;2023-06-10T04:56:49;12.00;;;9.60;;
61897;SDS011;47850;50.274;18.908;2023-06-10T04:59:17;12.80;;;9.90;;
61897;SDS011;47850;50.274;18.908;2023-06-10T05:01:45;15.10;;;9.50;;
61897;SDS011;47850;50.274;18.908;2023-06-10T05:04:12;14.20;;;9.30;;
61897;SDS011;47850;50.274;18.908;2023-06-10T05:06:40;13.60;;;9.70;;
61897;SDS011;47850;50.274;18.908;2023-06-10T05:09:09;16.70;;;9.60;;
61897;SDS011;47850;50.274;18.908;2023-06-10T05:11:37;11.80;;;9.40;;
61897;SDS011;47850;50.274;18.908;2023-06-10T05:14:05;13.50;;;8.40;;
61897;SDS011;47850;50.274;18.908;2023-06-10T05:16:33;13.50;;;9.20;;
61897;SDS011;47850;50.274;18.908;2023-06-10T05:19:01;11.60;;;9.00;;
61897;SDS011;47850;50.274;18.908;2023-06-10T05:21:29;11.60;;;8.80;;
61897;SDS011;47850;50.274;18.908;2023-06-10T05:23:56;11.70;;;9.20;;
61897;SDS011;47850;50.274;18.908;2023-06-10T05:26:24;12.10;;;8.80;;
61897;SDS011;47850;50.274;18.908;2023-06-10T05:28:52;13.40;;;9.10;;
61897;SDS011;47850;50.274;18.908;2023-06-10T05:31:20;11.80;;;8.20;;
61897;SDS011;47850;50.274;18.908;2023-06-10T05:33:48;11.40;;;8.10;;
61897;SDS011;47850;50.274;18.908;2023-06-10T05:36:16;10.70;;;8.20;;
61897;SDS011;47850;50.274;18.908;2023-06-10T05:38:44;14.70;;;9.00;;
61897;SDS011;47850;50.274;18.908;2023-06-10T05:41:11;11.70;;;8.00;;
61897;SDS011;47850;50.274;18.908;2023-06-10T05:43:39;13.20;;;7.80;;
61897;SDS011;47850;50.274;18.908;2023-06-10T05:46:07;14.20;;;9.00;;
61897;SDS011;47850;50.274;18.908;2023-06-10T05:48:35;14.00;;;9.20;;
61897;SDS011;47850;50.274;18.908;2023-06-10T05:51:03;11.20;;;8.70;;
61897;SDS011;47850;50.274;18.908;2023-06-10T05:53:31;13.10;;;8.80;;
61897;SDS011;47850;50.274;18.908;2023-06-10T05:55:59;14.00;;;9.30;;
61897;SDS011;47850;50.274;18.908;2023-06-10T05:58:27;15.80;;;8.90;;
61897;SDS011;47850;50.274;18.908;2023-06-10T06:00:55;12.80;;;9.00;;
61897;SDS011;47850;50.274;18.908;2023-06-10T06:03:23;15.30;;;9.50;;
61897;SDS011;47850;50.274;18.908;2023-06-10T06:05:51;12.90;;;9.00;;
61897;SDS011;47850;50.274;18.908;2023-06-10T06:08:18;14.10;;;9.90;;
61897;SDS011;47850;50.274;18.908;2023-06-10T06:10:46;18.60;;;10.70;;
61897;SDS011;47850;50.274;18.908;2023-06-10T06:13:15;38.10;;;18.40;;
61897;SDS011;47850;50.274;18.908;2023-06-10T06:15:43;21.30;;;13.00;;
61897;SDS011;47850;50.274;18.908;2023-06-10T06:18:11;39.90;;;17.70;;
61897;SDS011;47850;50.274;18.908;2023-06-10T06:20:40;21.20;;;11.10;;
61897;SDS011;47850;50.274;18.908;2023-06-10T06:23:08;37.40;;;14.70;;
61897;SDS011;47850;50.274;18.908;2023-06-10T06:25:38;16.40;;;9.40;;
61897;SDS011;47850;50.274;18.908;2023-06-10T06:28:06;16.60;;;9.90;;
61897;SDS011;47850;50.274;18.908;2023-06-10T06:30:35;12.90;;;8.70;;
61897;SDS011;47850;50.274;18.908;2023-06-10T06:33:03;12.10;;;8.10;;
61897;SDS011;47850;50.274;18.908;2023-06-10T06:35:32;12.10;;;7.40;;
61897;SDS011;47850;50.274;18.908;2023-06-10T06:38:01;13.10;;;7.30;;
61897;SDS011;47850;50.274;18.908;2023-06-10T06:40:29;9.70;;;7.30;;
61897;SDS011;47850;50.274;18.908;2023-06-10T06:42:57;11.10;;;7.60;;
61897;SDS011;47850;50.274;18.908;2023-06-10T06:45:24;10.20;;;7.40;;
61897;SDS011;47850;50.274;18.908;2023-06-10T06:47:52;13.40;;;7.50;;
61897;SDS011;47850;50.274;18.908;2023-06-10T06:50:20;11.70;;;7.10;;
61897;SDS011;47850;50.274;18.908;2023-06-10T06:52:48;12.10;;;7.30;;
61897;SDS011;47850;50.274;18.908;2023-06-10T06:55:15;10.10;;;6.90;;
61897;SDS011;47850;50.274;18.908;2023-06-10T06:57:43;10.90;;;7.10;;
61897;SDS011;47850;50.274;18.908;2023-06-10T07:00:11;10.40;;;6.40;;
61897;SDS011;47850;50.274;18.908;2023-06-10T07:02:39;8.00;;;6.90;;
61897;SDS011;47850;50.274;18.908;2023-06-10T07:05:08;11.50;;;7.00;;
61897;SDS011;47850;50.274;18.908;2023-06-10T07:07:36;13.60;;;7.70;;
61897;SDS011;47850;50.274;18.908;2023-06-10T07:10:03;12.40;;;9.20;;
61897;SDS011;47850;50.274;18.908;2023-06-10T07:12:32;16.70;;;10.30;;
61897;SDS011;47850;50.274;18.908;2023-06-10T07:14:59;15.40;;;10.90;;
61897;SDS011;47850;50.274;18.908;2023-06-10T07:17:27;19.50;;;12.20;;
61897;SDS011;47850;50.274;18.908;2023-06-10T07:19:55;16.70;;;12.00;;
61897;SDS011;47850;50.274;18.908;2023-06-10T07:22:25;14.00;;;11.00;;
61897;SDS011;47850;50.274;18.908;2023-06-10T07:24:53;15.00;;;10.50;;
61897;SDS011;47850;50.274;18.908;2023-06-10T07:27:22;14.80;;;9.70;;
61897;SDS011;47850;50.274;18.908;2023-06-10T07:29:50;11.10;;;8.60;;
61897;SDS011;47850;50.274;18.908;2023-06-10T07:32:19;9.00;;;7.40;;
61897;SDS011;47850;50.274;18.908;2023-06-10T07:34:51;12.40;;;7.30;;
61897;SDS011;47850;50.274;18.908;2023-06-10T07:37:18;11.80;;;8.10;;
61897;SDS011;47850;50.274;18.908;2023-06-10T07:39:47;11.80;;;7.90;;
61897;SDS011;47850;50.274;18.908;2023-06-10T07:42:15;12.40;;;7.60;;
61897;SDS011;47850;50.274;18.908;2023-06-10T07:44:42;16.20;;;8.60;;
61897;SDS011;47850;50.274;18.908;2023-06-10T07:47:10;16.90;;;8.50;;
61897;SDS011;47850;50.274;18.908;2023-06-10T07:49:38;19.60;;;8.10;;
61897;SDS011;47850;50.274;18.908;2023-06-10T07:52:07;17.60;;;8.00;;
61897;SDS011;47850;50.274;18.908;2023-06-10T07:54:35;9.60;;;7.10;;
61897;SDS011;47850;50.274;18.908;2023-06-10T07:57:03;17.70;;;7.80;;
61897;SDS011;47850;50.274;18.908;2023-06-10T07:59:32;18.60;;;7.80;;
61897;SDS011;47850;50.274;18.908;2023-06-10T08:02:00;10.10;;;6.80;;
61897;SDS011;47850;50.274;18.908;2023-06-10T08:04:28;17.80;;;7.00;;
61897;SDS011;47850;50.274;18.908;2023-06-10T08:09:25;11.10;;;6.50;;
61897;SDS011;47850;50.274;18.908;2023-06-10T08:11:53;11.90;;;6.60;;
61897;SDS011;47850;50.274;18.908;2023-06-10T08:14:23;10.80;;;7.10;;
61897;SDS011;47850;50.274;18.908;2023-06-10T08:16:50;15.00;;;7.20;;
61897;SDS011;47850;50.274;18.908;2023-06-10T08:19:18;10.10;;;7.10;;
61897;SDS011;47850;50.274;18.908;2023-06-10T08:21:46;14.10;;;7.90;;
61897;SDS011;47850;50.274;18.908;2023-06-10T08:24:14;14.40;;;9.80;;
61897;SDS011;47850;50.274;18.908;2023-06-10T08:26:45;18.90;;;8.90;;
61897;SDS011;47850;50.274;18.908;2023-06-10T08:29:13;13.70;;;7.30;;
61897;SDS011;47850;50.274;18.908;2023-06-10T08:31:41;8.30;;;5.90;;
61897;SDS011;47850;50.274;18.908;2023-06-10T08:34:10;13.40;;;5.90;;
61897;SDS011;47850;50.274;18.908;2023-06-10T08:36:39;15.20;;;6.00;;
61897;SDS011;47850;50.274;18.908;2023-06-10T08:39:07;7.90;;;5.30;;
61897;SDS011;47850;50.274;18.908;2023-06-10T08:41:35;8.30;;;5.30;;
61897;SDS011;47850;50.274;18.908;2023-06-10T08:44:27;11.50;;;5.00;;
61897;SDS011;47850;50.274;18.908;2023-06-10T08:46:58;7.10;;;4.90;;
61897;SDS011;47850;50.274;18.908;2023-06-10T08:49:29;10.00;;;5.30;;
61897;SDS011;47850;50.274;18.908;2023-06-10T08:52:00;10.60;;;5.70;;
61897;SDS011;47850;50.274;18.908;2023-06-10T08:54:33;6.50;;;5.20;;
61897;SDS011;47850;50.274;18.908;2023-06-10T08:57:05;12.60;;;5.80;;
61897;SDS011;47850;50.274;18.908;2023-06-10T08:59:33;9.80;;;5.10;;
61897;SDS011;47850;50.274;18.908;2023-06-10T09:02:01;9.00;;;5.10;;
61897;SDS011;47850;50.274;18.908;2023-06-10T09:04:31;7.40;;;5.10;;
61897;SDS011;47850;50.274;18.908;2023-06-10T09:06:59;9.20;;;5.50;;
61897;SDS011;47850;50.274;18.908;2023-06-10T09:09:28;10.50;;;5.30;;
61897;SDS011;47850;50.274;18.908;2023-06-10T09:14:25;8.70;;;5.30;;
61897;SDS011;47850;50.274;18.908;2023-06-10T09:16:53;6.40;;;4.80;;
61897;SDS011;47850;50.274;18.908;2023-06-10T09:19:25;11.60;;;6.40;;
61897;SDS011;47850;50.274;18.908;2023-06-10T09:21:54;12.10;;;6.00;;
61897;SDS011;47850;50.274;18.908;2023-06-10T09:24:22;8.80;;;6.60;;
61897;SDS011;47850;50.274;18.908;2023-06-10T09:27:01;13.00;;;7.00;;
61897;SDS011;47850;50.274;18.908;2023-06-10T09:29:52;8.90;;;5.50;;
61897;SDS011;47850;50.274;18.908;2023-06-10T09:32:21;11.70;;;6.10;;
61897;SDS011;47850;50.274;18.908;2023-06-10T09:34:49;15.80;;;7.40;;
61897;SDS011;47850;50.274;18.908;2023-06-10T09:37:21;9.40;;;6.10;;
61897;SDS011;47850;50.274;18.908;2023-06-10T09:42:35;9.30;;;5.90;;
61897;SDS011;47850;50.274;18.908;2023-06-10T09:45:05;12.40;;;6.50;;
61897;SDS011;47850;50.274;18.908;2023-06-10T09:47:34;14.60;;;5.40;;
61897;SDS011;47850;50.274;18.908;2023-06-10T09:50:02;7.50;;;6.40;;
61897;SDS011;47850;50.274;18.908;2023-06-10T09:52:31;9.90;;;5.80;;
61897;SDS011;47850;50.274;18.908;2023-06-10T09:54:59;5.50;;;4.90;;
61897;SDS011;47850;50.274;18.908;2023-06-10T10:00:07;14.30;;;4.70;;
61897;SDS011;47850;50.274;18.908;2023-06-10T10:02:44;7.20;;;4.90;;
61897;SDS011;47850;50.274;18.908;2023-06-10T10:05:17;10.10;;;4.60;;
61897;SDS011;47850;50.274;18.908;2023-06-10T10:07:49;8.30;;;4.70;;
61897;SDS011;47850;50.274;18.908;2023-06-10T10:10:19;12.60;;;5.50;;
61897;SDS011;47850;50.274;18.908;2023-06-10T10:12:50;6.30;;;4.10;;
61897;SDS011;47850;50.274;18.908;2023-06-10T10:15:23;5.70;;;4.10;;
61897;SDS011;47850;50.274;18.908;2023-06-10T10:17:58;5.30;;;3.70;;
61897;SDS011;47850;50.274;18.908;2023-06-10T10:20:31;6.80;;;4.10;;
61897;SDS011;47850;50.274;18.908;2023-06-10T10:23:03;7.40;;;3.60;;
61897;SDS011;47850;50.274;18.908;2023-06-10T10:25:34;8.20;;;3.80;;
61897;SDS011;47850;50.274;18.908;2023-06-10T10:28:09;4.30;;;2.80;;
61897;SDS011;47850;50.274;18.908;2023-06-10T10:30:51;6.40;;;3.40;;
61897;SDS011;47850;50.274;18.908;2023-06-10T10:33:22;5.10;;;3.00;;
61897;SDS011;47850;50.274;18.908;2023-06-10T10:36:01;4.40;;;3.00;;
61897;SDS011;47850;50.274;18.908;2023-06-10T10:38:28;4.50;;;3.30;;
61897;SDS011;47850;50.274;18.908;2023-06-10T10:40:57;7.80;;;3.00;;
61897;SDS011;47850;50.274;18.908;2023-06-10T10:43:28;7.20;;;3.20;;
61897;SDS011;47850;50.274;18.908;2023-06-10T10:46:01;5.90;;;3.60;;
61897;SDS011;47850;50.274;18.908;2023-06-10T10:48:35;11.70;;;3.80;;
61897;SDS011;47850;50.274;18.908;2023-06-10T10:51:05;6.60;;;4.70;;
61897;SDS011;47850;50.274;18.908;2023-06-10T10:53:33;8.70;;;4.60;;
61897;SDS011;47850;50.274;18.908;2023-06-10T10:56:07;7.30;;;4.30;;
61897;SDS011;47850;50.274;18.908;2023-06-10T10:58:40;9.30;;;4.10;;
61897;SDS011;47850;50.274;18.908;2023-06-10T11:01:14;3.70;;;3.30;;
61897;SDS011;47850;50.274;18.908;2023-06-10T11:03:46;3.70;;;3.10;;
61897;SDS011;47850;50.274;18.908;2023-06-10T11:06:17;15.60;;;3.40;;
61897;SDS011;47850;50.274;18.908;2023-06-10T11:08:46;8.50;;;3.80;;
61897;SDS011;47850;50.274;18.908;2023-06-10T11:11:27;6.20;;;3.40;;
61897;SDS011;47850;50.274;18.908;2023-06-10T11:16:30;5.70;;;3.30;;
61897;SDS011;47850;50.274;18.908;2023-06-10T11:19:08;7.70;;;3.20;;
61897;SDS011;47850;50.274;18.908;2023-06-10T11:24:30;5.20;;;3.00;;
61897;SDS011;47850;50.274;18.908;2023-06-10T11:27:14;5.40;;;3.10;;
61897;SDS011;47850;50.274;18.908;2023-06-10T11:32:23;6.30;;;3.30;;
61897;SDS011;47850;50.274;18.908;2023-06-10T11:34:57;7.10;;;3.20;;
61897;SDS011;47850;50.274;18.908;2023-06-10T11:37:25;7.20;;;2.90;;
61897;SDS011;47850;50.274;18.908;2023-06-10T11:39:56;4.10;;;3.20;;
61897;SDS011;47850;50.274;18.908;2023-06-10T11:42:24;4.80;;;3.10;;
61897;SDS011;47850;50.274;18.908;2023-06-10T11:44:52;10.90;;;3.30;;
61897;SDS011;47850;50.274;18.908;2023-06-10T11:47:21;5.80;;;3.50;;
61897;SDS011;47850;50.274;18.908;2023-06-10T11:49:55;6.50;;;3.10;;
61897;SDS011;47850;50.274;18.908;2023-06-10T11:52:29;7.10;;;3.40;;
61897;SDS011;47850;50.274;18.908;2023-06-10T11:55:05;5.90;;;3.10;;
61897;SDS011;47850;50.274;18.908;2023-06-10T11:57:34;4.30;;;3.00;;
61897;SDS011;47850;50.274;18.908;2023-06-10T12:00:06;7.10;;;3.10;;
61897;SDS011;47850;50.274;18.908;2023-06-10T12:02:36;4.70;;;3.40;;
61897;SDS011;47850;50.274;18.908;2023-06-10T12:05:11;5.10;;;3.50;;
61897;SDS011;47850;50.274;18.908;2023-06-10T12:07:40;7.50;;;3.20;;
61897;SDS011;47850;50.274;18.908;2023-06-10T12:10:07;5.30;;;3.40;;
61897;SDS011;47850;50.274;18.908;2023-06-10T12:12:35;5.60;;;3.60;;
61897;SDS011;47850;50.274;18.908;2023-06-10T12:15:04;5.50;;;3.70;;
61897;SDS011;47850;50.274;18.908;2023-06-10T12:17:36;4.50;;;3.40;;
61897;SDS011;47850;50.274;18.908;2023-06-10T12:22:38;5.00;;;3.70;;
61897;SDS011;47850;50.274;18.908;2023-06-10T12:25:07;6.50;;;3.70;;
61897;SDS011;47850;50.274;18.908;2023-06-10T12:27:36;7.50;;;3.50;;
61897;SDS011;47850;50.274;18.908;2023-06-10T12:30:05;7.00;;;3.60;;
61897;SDS011;47850;50.274;18.908;2023-06-10T12:32:44;9.30;;;3.80;;
61897;SDS011;47850;50.274;18.908;2023-06-10T12:35:20;6.30;;;3.50;;
61897;SDS011;47850;50.274;18.908;2023-06-10T12:38:01;6.80;;;3.60;;
61897;SDS011;47850;50.274;18.908;2023-06-10T12:40:34;7.30;;;3.60;;
61897;SDS011;47850;50.274;18.908;2023-06-10T12:43:04;8.10;;;3.60;;
61897;SDS011;47850;50.274;18.908;2023-06-10T12:45:33;7.50;;;3.30;;
61897;SDS011;47850;50.274;18.908;2023-06-10T12:50:37;6.90;;;3.40;;
61897;SDS011;47850;50.274;18.908;2023-06-10T12:53:08;7.00;;;3.60;;
61897;SDS011;47850;50.274;18.908;2023-06-10T12:55:37;6.80;;;3.20;;
61897;SDS011;47850;50.274;18.908;2023-06-10T12:58:05;7.40;;;3.00;;
61897;SDS011;47850;50.274;18.908;2023-06-10T13:00:33;12.40;;;3.60;;
61897;SDS011;47850;50.274;18.908;2023-06-10T13:03:05;6.70;;;3.30;;
61897;SDS011;47850;50.274;18.908;2023-06-10T13:05:35;11.90;;;3.30;;
61897;SDS011;47850;50.274;18.908;2023-06-10T13:08:06;8.40;;;3.30;;
61897;SDS011;47850;50.274;18.908;2023-06-10T13:10:35;5.70;;;3.80;;
61897;SDS011;47850;50.274;18.908;2023-06-10T13:13:03;4.40;;;3.30;;
61897;SDS011;47850;50.274;18.908;2023-06-10T13:15:37;6.30;;;3.70;;
61897;SDS011;47850;50.274;18.908;2023-06-10T13:18:04;5.60;;;3.70;;
61897;SDS011;47850;50.274;18.908;2023-06-10T13:20:32;9.40;;;3.60;;
61897;SDS011;47850;50.274;18.908;2023-06-10T13:23:01;4.70;;;3.70;;
61897;SDS011;47850;50.274;18.908;2023-06-10T13:25:29;5.90;;;3.80;;
61897;SDS011;47850;50.274;18.908;2023-06-10T13:27:56;6.50;;;3.70;;
61897;SDS011;47850;50.274;18.908;2023-06-10T13:30:25;7.00;;;3.30;;
61897;SDS011;47850;50.274;18.908;2023-06-10T13:35:21;6.20;;;3.70;;
61897;SDS011;47850;50.274;18.908;2023-06-10T13:37:49;4.50;;;3.70;;
61897;SDS011;47850;50.274;18.908;2023-06-10T13:40:17;4.80;;;3.30;;
61897;SDS011;47850;50.274;18.908;2023-06-10T13:42:47;6.80;;;3.30;;
61897;SDS011;47850;50.274;18.908;2023-06-10T13:45:20;11.60;;;3.60;;
61897;SDS011;47850;50.274;18.908;2023-06-10T13:47:48;8.10;;;3.50;;
61897;SDS011;47850;50.274;18.908;2023-06-10T13:50:16;4.40;;;3.30;;
61897;SDS011;47850;50.274;18.908;2023-06-10T13:52:43;7.40;;;3.60;;
61897;SDS011;47850;50.274;18.908;2023-06-10T13:55:11;7.20;;;3.50;;
61897;SDS011;47850;50.274;18.908;2023-06-10T13:57:39;6.30;;;3.40;;
61897;SDS011;47850;50.274;18.908;2023-06-10T14:00:07;5.40;;;3.40;;
61897;SDS011;47850;50.274;18.908;2023-06-10T14:02:39;11.40;;;3.70;;
61897;SDS011;47850;50.274;18.908;2023-06-10T14:05:06;12.10;;;3.50;;
61897;SDS011;47850;50.274;18.908;2023-06-10T14:07:35;5.20;;;3.30;;
61897;SDS011;47850;50.274;18.908;2023-06-10T14:10:05;5.60;;;3.20;;
61897;SDS011;47850;50.274;18.908;2023-06-10T14:12:35;9.00;;;3.60;;
61897;SDS011;47850;50.274;18.908;2023-06-10T14:15:04;5.10;;;3.40;;
61897;SDS011;47850;50.274;18.908;2023-06-10T14:17:32;8.70;;;3.20;;
61897;SDS011;47850;50.274;18.908;2023-06-10T14:20:00;11.00;;;3.50;;
61897;SDS011;47850;50.274;18.908;2023-06-10T14:22:28;11.00;;;3.30;;
61897;SDS011;47850;50.274;18.908;2023-06-10T14:24:56;7.40;;;3.30;;
61897;SDS011;47850;50.274;18.908;2023-06-10T14:27:23;7.80;;;3.30;;
61897;SDS011;47850;50.274;18.908;2023-06-10T14:29:51;5.00;;;3.20;;
61897;SDS011;47850;50.274;18.908;2023-06-10T14:32:19;28.30;;;3.80;;
61897;SDS011;47850;50.274;18.908;2023-06-10T14:34:47;6.50;;;2.60;;
61897;SDS011;47850;50.274;18.908;2023-06-10T14:37:17;6.00;;;2.80;;
61897;SDS011;47850;50.274;18.908;2023-06-10T14:39:45;7.40;;;2.70;;
61897;SDS011;47850;50.274;18.908;2023-06-10T14:42:13;2.60;;;2.20;;
61897;SDS011;47850;50.274;18.908;2023-06-10T14:44:40;6.10;;;2.60;;
61897;SDS011;47850;50.274;18.908;2023-06-10T14:47:08;5.40;;;2.70;;
61897;SDS011;47850;50.274;18.908;2023-06-10T14:49:36;8.30;;;3.60;;
61897;SDS011;47850;50.274;18.908;2023-06-10T14:52:04;5.50;;;3.10;;
61897;SDS011;47850;50.274;18.908;2023-06-10T14:54:32;6.20;;;3.00;;
61897;SDS011;47850;50.274;18.908;2023-06-10T14:56:59;6.10;;;3.20;;
61897;SDS011;47850;50.274;18.908;2023-06-10T14:59:27;5.50;;;3.20;;
61897;SDS011;47850;50.274;18.908;2023-06-10T15:01:55;7.30;;;3.20;;
61897;SDS011;47850;50.274;18.908;2023-06-10T15:04:23;5.80;;;2.90;;
61897;SDS011;47850;50.274;18.908;2023-06-10T15:06:51;4.20;;;3.60;;